createdAt,value
2018-12-25T00:00:42.642Z,8.10
2018-12-25T00:03:09.956Z,8.00
2018-12-25T00:05:37.314Z,8.00
2018-12-25T00:08:04.731Z,8.00
2018-12-25T00:10:32.133Z,8.00
2018-12-25T00:12:59.411Z,8.00
2018-12-25T00:15:26.712Z,8.00
2018-12-25T00:17:54.021Z,8.00
2018-12-25T00:20:21.335Z,8.00
2018-12-25T00:22:48.658Z,8.00
2018-12-25T00:25:16.054Z,8.00
2018-12-25T00:27:43.486Z,8.00
2018-12-25T00:30:10.896Z,7.90
2018-12-25T00:32:38.220Z,7.90
2018-12-25T00:35:05.582Z,7.90
2018-12-25T00:37:33.000Z,7.90
2018-12-25T00:40:00.632Z,8.00
2018-12-25T00:42:28.043Z,7.90
2018-12-25T00:44:55.728Z,8.00
2018-12-25T00:47:23.030Z,7.90
2018-12-25T00:49:50.433Z,7.90
2018-12-25T00:52:18.050Z,7.90
2018-12-25T00:54:45.284Z,7.90
2018-12-25T00:57:12.615Z,7.90
2018-12-25T00:59:40.032Z,7.90
2018-12-25T01:02:07.428Z,7.90
2018-12-25T01:04:34.829Z,7.90
2018-12-25T01:07:02.147Z,8.00
2018-12-25T01:09:29.428Z,7.90
2018-12-25T01:11:56.754Z,8.00
2018-12-25T01:14:24.060Z,8.00
2018-12-25T01:16:51.434Z,8.00
2018-12-25T01:19:23.316Z,8.00
2018-12-25T01:21:47.826Z,8.00
2018-12-25T01:24:15.176Z,8.00
2018-12-25T01:26:42.582Z,8.00
2018-12-25T01:29:09.999Z,8.00
2018-12-25T01:31:37.390Z,8.10
2018-12-25T01:34:04.697Z,8.20
2018-12-25T01:36:32.011Z,8.20
2018-12-25T01:38:59.766Z,8.20
2018-12-25T01:41:27.172Z,8.20
2018-12-25T01:43:54.454Z,8.20
2018-12-25T01:46:21.848Z,8.20
2018-12-25T01:48:49.417Z,8.20
2018-12-25T01:51:16.740Z,8.20
2018-12-25T01:53:44.112Z,8.20
2018-12-25T01:56:11.427Z,8.10
2018-12-25T01:58:38.821Z,8.10
2018-12-25T02:01:06.118Z,8.10
2018-12-25T02:03:33.514Z,8.00
2018-12-25T02:06:00.960Z,8.00
2018-12-25T02:08:28.650Z,7.80
2018-12-25T02:10:55.928Z,7.70
2018-12-25T02:13:23.338Z,7.70
2018-12-25T02:15:50.638Z,7.60
2018-12-25T02:18:17.942Z,7.50
2018-12-25T02:20:45.322Z,7.40
2018-12-25T02:23:12.728Z,7.30
2018-12-25T02:25:40.133Z,7.20
2018-12-25T02:28:07.461Z,7.20
2018-12-25T02:30:34.791Z,7.10
2018-12-25T02:33:02.188Z,7.00
2018-12-25T02:35:29.601Z,7.00
2018-12-25T02:37:56.886Z,7.00
2018-12-25T02:40:24.222Z,6.90
2018-12-25T02:42:51.606Z,6.80
2018-12-25T02:45:18.990Z,6.80
2018-12-25T02:47:46.303Z,6.80
2018-12-25T02:50:14.026Z,6.70
2018-12-25T02:52:41.423Z,6.70
2018-12-25T02:55:08.821Z,6.70
2018-12-25T02:57:36.218Z,6.70
2018-12-25T03:00:04.617Z,6.70
2018-12-25T03:02:32.025Z,6.70
2018-12-25T03:04:59.426Z,6.70
2018-12-25T03:07:26.796Z,6.70
2018-12-25T03:09:54.156Z,6.70
2018-12-25T03:12:21.513Z,6.70
2018-12-25T03:14:48.904Z,6.80
2018-12-25T03:17:16.201Z,6.80
2018-12-25T03:19:43.510Z,6.70
2018-12-25T03:22:10.818Z,6.60
2018-12-25T03:24:38.118Z,6.50
2018-12-25T03:27:05.527Z,6.50
2018-12-25T03:29:32.907Z,6.40
2018-12-25T03:32:00.620Z,6.30
2018-12-25T03:34:28.001Z,6.30
2018-12-25T03:36:55.375Z,6.20
2018-12-25T03:39:22.750Z,6.10
2018-12-25T03:41:50.191Z,6.10
2018-12-25T03:44:17.561Z,6.10
2018-12-25T03:46:45.155Z,5.90
2018-12-25T03:49:12.446Z,6.00
2018-12-25T03:51:39.729Z,6.10
2018-12-25T03:54:07.092Z,6.00
2018-12-25T03:56:34.449Z,6.10
2018-12-25T03:59:01.756Z,6.20
2018-12-25T04:01:29.462Z,6.20
2018-12-25T04:03:57.183Z,6.10
2018-12-25T04:06:24.845Z,6.10
2018-12-25T04:08:52.129Z,6.10
2018-12-25T04:11:19.519Z,6.00
2018-12-25T04:13:46.814Z,5.90
2018-12-25T04:16:14.203Z,5.90
2018-12-25T04:18:41.467Z,5.80
2018-12-25T04:21:08.868Z,5.70
2018-12-25T04:23:36.289Z,5.70
2018-12-25T04:26:03.709Z,5.70
2018-12-25T04:28:31.398Z,5.60
2018-12-25T04:30:58.669Z,5.60
2018-12-25T04:33:26.074Z,5.60
2018-12-25T04:35:53.446Z,5.60
2018-12-25T04:38:20.853Z,5.60
2018-12-25T04:40:48.135Z,5.60
2018-12-25T04:43:15.510Z,5.60
2018-12-25T04:45:43.007Z,5.60
2018-12-25T04:48:10.380Z,5.60
2018-12-25T04:50:37.794Z,5.60
2018-12-25T04:53:05.411Z,5.60
2018-12-25T04:55:33.119Z,5.60
2018-12-25T04:58:00.394Z,5.50
2018-12-25T05:00:27.742Z,5.50
2018-12-25T05:02:55.025Z,5.50
2018-12-25T05:05:22.340Z,5.50
2018-12-25T05:07:49.702Z,5.50
2018-12-25T05:10:17.358Z,5.40
2018-12-25T05:12:44.742Z,5.50
2018-12-25T05:15:11.999Z,5.50
2018-12-25T05:17:39.286Z,5.50
2018-12-25T05:20:06.621Z,5.50
2018-12-25T05:22:33.925Z,5.50
2018-12-25T05:25:01.216Z,5.50
2018-12-25T05:27:28.606Z,5.40
2018-12-25T05:29:55.900Z,5.40
2018-12-25T05:32:23.304Z,5.40
2018-12-25T05:34:50.682Z,5.50
2018-12-25T05:37:18.227Z,5.50
2018-12-25T05:39:45.515Z,5.50
2018-12-25T05:42:12.797Z,5.50
2018-12-25T05:44:40.120Z,5.50
2018-12-25T05:47:07.499Z,5.50
2018-12-25T05:49:34.909Z,5.40
2018-12-25T05:52:02.303Z,5.40
2018-12-25T05:54:29.691Z,5.30
2018-12-25T05:56:57.000Z,5.30
2018-12-25T05:59:24.349Z,5.30
2018-12-25T06:01:51.681Z,5.30
2018-12-25T06:04:19.061Z,5.30
2018-12-25T06:06:46.379Z,5.30
2018-12-25T06:09:13.745Z,5.20
2018-12-25T06:11:41.038Z,5.20
2018-12-25T06:14:08.417Z,5.20
2018-12-25T06:16:35.702Z,5.10
2018-12-25T06:19:03.105Z,5.10
2018-12-25T06:21:30.492Z,5.10
2018-12-25T06:23:57.800Z,5.10
2018-12-25T06:26:25.480Z,5.10
2018-12-25T06:28:52.768Z,5.00
2018-12-25T06:31:21.429Z,5.10
2018-12-25T06:33:49.006Z,5.10
2018-12-25T06:36:16.318Z,5.10
2018-12-25T06:38:43.900Z,5.10
2018-12-25T06:41:11.554Z,5.10
2018-12-25T06:43:38.955Z,5.20
2018-12-25T06:46:06.547Z,5.20
2018-12-25T06:48:33.824Z,5.20
2018-12-25T06:51:03.883Z,5.10
2018-12-25T06:53:30.307Z,5.20
2018-12-25T06:55:57.626Z,5.20
2018-12-25T06:58:25.028Z,5.20
2018-12-25T07:00:52.321Z,5.20
2018-12-25T07:03:19.748Z,5.20
2018-12-25T07:05:47.109Z,5.20
2018-12-25T07:08:14.422Z,5.30
2018-12-25T07:10:41.824Z,5.40
2018-12-25T07:13:09.245Z,5.40
2018-12-25T07:15:36.528Z,5.40
2018-12-25T07:18:03.812Z,5.40
2018-12-25T07:20:31.107Z,5.40
2018-12-25T07:22:58.393Z,5.30
2018-12-25T07:25:25.663Z,5.30
2018-12-25T07:27:53.193Z,5.30
2018-12-25T07:30:20.578Z,5.20
2018-12-25T07:32:48.018Z,5.20
2018-12-25T07:35:15.420Z,5.20
2018-12-25T07:37:42.786Z,5.10
2018-12-25T07:40:10.075Z,5.20
2018-12-25T07:42:37.402Z,5.20
2018-12-25T07:45:04.881Z,5.20
2018-12-25T07:47:32.159Z,5.30
2018-12-25T07:49:59.466Z,5.30
2018-12-25T07:52:27.097Z,5.30
2018-12-25T07:54:54.436Z,5.40
2018-12-25T07:57:21.862Z,5.50
2018-12-25T07:59:49.285Z,5.60
2018-12-25T08:02:16.615Z,5.60
2018-12-25T08:04:44.225Z,5.60
2018-12-25T08:07:11.567Z,5.70
2018-12-25T08:09:38.964Z,5.70
2018-12-25T08:12:06.262Z,5.70
2018-12-25T08:14:33.539Z,5.80
2018-12-25T08:17:00.850Z,5.80
2018-12-25T08:19:28.139Z,5.80
2018-12-25T08:21:55.581Z,5.80
2018-12-25T08:24:22.985Z,5.90
2018-12-25T08:26:50.403Z,5.90
2018-12-25T08:29:18.096Z,5.90
2018-12-25T08:31:45.497Z,6.10
2018-12-25T08:34:12.789Z,6.10
2018-12-25T08:36:40.119Z,6.10
2018-12-25T08:39:07.435Z,6.10
2018-12-25T08:41:34.842Z,6.10
2018-12-25T08:44:02.274Z,6.20
2018-12-25T08:46:29.898Z,6.30
2018-12-25T08:48:57.186Z,6.40
2018-12-25T08:51:24.551Z,6.40
2018-12-25T08:53:51.899Z,6.30
2018-12-25T08:56:19.360Z,6.30
2018-12-25T08:58:46.760Z,6.30
2018-12-25T09:01:14.192Z,6.40
2018-12-25T09:03:41.606Z,6.50
2018-12-25T09:06:08.944Z,6.50
2018-12-25T09:08:36.367Z,6.60
2018-12-25T09:11:03.813Z,6.70
2018-12-25T09:13:31.238Z,6.70
2018-12-25T09:15:58.673Z,6.70
2018-12-25T09:18:26.001Z,6.70
2018-12-25T09:20:53.703Z,6.70
2018-12-25T09:23:21.141Z,6.80
2018-12-25T09:25:48.434Z,6.90
2018-12-25T09:28:15.743Z,6.90
2018-12-25T09:30:43.160Z,6.80
2018-12-25T09:33:10.603Z,7.00
2018-12-25T09:35:38.027Z,6.80
2018-12-25T09:38:05.473Z,6.90
2018-12-25T09:40:32.842Z,7.00
2018-12-25T09:43:00.294Z,7.10
2018-12-25T09:45:27.710Z,7.20
2018-12-25T09:47:55.457Z,7.20
2018-12-25T09:50:23.216Z,7.20
2018-12-25T09:52:50.810Z,7.30
2018-12-25T09:55:18.233Z,7.50
2018-12-25T09:57:45.685Z,7.50
2018-12-25T10:00:13.491Z,7.50
2018-12-25T10:02:40.950Z,7.60
2018-12-25T10:05:08.352Z,7.60
2018-12-25T10:07:35.752Z,7.70
2018-12-25T10:10:03.458Z,7.80
2018-12-25T10:12:30.859Z,7.90
2018-12-25T10:14:58.313Z,7.90
2018-12-25T10:17:25.725Z,8.10
2018-12-25T10:19:53.091Z,8.10
2018-12-25T10:22:20.863Z,8.10
2018-12-25T10:24:48.326Z,8.10
2018-12-25T10:27:15.727Z,8.10
2018-12-25T10:29:43.035Z,8.30
2018-12-25T10:32:10.732Z,8.60
2018-12-25T10:34:38.141Z,8.70
2018-12-25T10:37:05.463Z,8.80
2018-12-25T10:39:32.925Z,8.80
2018-12-25T10:42:00.363Z,8.90
2018-12-25T10:44:27.778Z,8.90
2018-12-25T10:46:55.287Z,8.90
2018-12-25T10:49:22.718Z,8.90
2018-12-25T10:51:50.176Z,8.90
2018-12-25T10:54:17.661Z,9.00
2018-12-25T10:56:45.079Z,9.00
2018-12-25T10:59:12.475Z,9.00
2018-12-25T11:01:39.820Z,9.00
2018-12-25T11:04:07.249Z,9.00
2018-12-25T11:06:34.672Z,9.00
2018-12-25T11:09:02.027Z,9.00
2018-12-25T11:11:29.823Z,9.00
2018-12-25T11:13:57.308Z,9.00
2018-12-25T11:16:24.722Z,9.00
2018-12-25T11:18:52.402Z,9.20
2018-12-25T11:21:19.905Z,9.30
2018-12-25T11:23:47.277Z,9.30
2018-12-25T11:26:14.614Z,9.20
2018-12-25T11:28:42.401Z,9.30
2018-12-25T11:31:09.799Z,9.30
2018-12-25T11:33:37.275Z,9.30
2018-12-25T11:36:04.687Z,9.40
2018-12-25T11:38:32.142Z,9.60
2018-12-25T11:40:59.556Z,9.40
2018-12-25T11:43:26.979Z,9.40
2018-12-25T11:45:54.303Z,9.50
2018-12-25T11:48:22.051Z,9.40
2018-12-25T11:50:49.474Z,9.60
2018-12-25T11:53:17.117Z,9.70
2018-12-25T11:55:44.517Z,10.00
2018-12-25T11:58:12.118Z,10.10
2018-12-25T12:00:39.581Z,10.10
2018-12-25T12:03:06.913Z,10.30
2018-12-25T12:05:34.334Z,10.50
2018-12-25T12:08:01.829Z,10.70
2018-12-25T12:10:29.537Z,10.60
2018-12-25T12:12:56.947Z,10.60
2018-12-25T12:15:24.361Z,10.60
2018-12-25T12:17:51.693Z,10.60
2018-12-25T12:20:19.121Z,10.50
2018-12-25T12:22:46.471Z,10.40
2018-12-25T12:25:13.913Z,10.30
2018-12-25T12:27:41.370Z,10.20
2018-12-25T12:30:08.782Z,10.10
2018-12-25T12:32:36.188Z,10.00
2018-12-25T12:35:03.758Z,10.00
2018-12-25T12:37:31.094Z,10.00
2018-12-25T12:39:58.547Z,9.80
2018-12-25T12:42:25.957Z,9.70
2018-12-25T12:44:53.299Z,9.50
2018-12-25T12:47:20.634Z,9.60
2018-12-25T12:49:48.361Z,9.60
2018-12-25T12:52:17.575Z,9.70
2018-12-25T12:54:44.981Z,9.60
2018-12-25T12:57:12.403Z,9.60
2018-12-25T12:59:39.878Z,9.50
2018-12-25T13:02:07.270Z,9.40
2018-12-25T13:04:34.932Z,9.40
2018-12-25T13:07:02.377Z,9.40
2018-12-25T13:09:30.598Z,9.40
2018-12-25T13:11:58.025Z,9.40
2018-12-25T13:14:25.435Z,9.40
2018-12-25T13:16:52.843Z,9.40
2018-12-25T13:19:20.162Z,9.40
2018-12-25T13:21:47.635Z,9.40
2018-12-25T13:24:15.057Z,9.30
2018-12-25T13:26:42.516Z,9.30
2018-12-25T13:29:09.935Z,9.20
2018-12-25T13:31:37.347Z,9.20
2018-12-25T13:34:04.740Z,9.00
2018-12-25T13:36:32.187Z,8.90
2018-12-25T13:38:59.605Z,8.90
2018-12-25T13:41:27.057Z,8.90
2018-12-25T13:43:54.485Z,9.00
2018-12-25T13:46:21.914Z,9.00
2018-12-25T13:48:49.604Z,9.00
2018-12-25T13:51:17.026Z,9.00
2018-12-25T13:53:44.457Z,8.90
2018-12-25T13:56:11.847Z,8.90
2018-12-25T13:58:39.879Z,8.90
2018-12-25T14:01:07.299Z,8.90
2018-12-25T14:03:34.918Z,9.00
2018-12-25T14:06:02.326Z,9.00
2018-12-25T14:08:29.677Z,9.00
2018-12-25T14:10:57.035Z,9.00
2018-12-25T14:13:24.464Z,9.00
2018-12-25T14:15:51.868Z,9.10
2018-12-25T14:18:19.389Z,9.20
2018-12-25T14:20:46.790Z,9.20
2018-12-25T14:23:14.241Z,9.00
2018-12-25T14:25:41.562Z,8.90
2018-12-25T14:28:08.955Z,8.80
2018-12-25T14:30:36.381Z,8.80
2018-12-25T14:33:03.749Z,8.80
2018-12-25T14:35:31.182Z,8.80
2018-12-25T14:37:58.511Z,8.90
2018-12-25T14:40:25.941Z,8.90
2018-12-25T14:42:53.423Z,8.70
2018-12-25T14:45:20.901Z,8.60
2018-12-25T14:47:48.385Z,8.50
2018-12-25T14:50:15.827Z,8.40
2018-12-25T14:52:43.271Z,8.30
2018-12-25T14:55:11.077Z,8.30
2018-12-25T14:57:38.531Z,8.30
2018-12-25T15:00:07.197Z,8.30
2018-12-25T15:02:34.603Z,8.30
2018-12-25T15:05:02.105Z,8.30
2018-12-25T15:07:29.498Z,8.20
2018-12-25T15:09:56.906Z,8.20
2018-12-25T15:12:24.307Z,8.10
2018-12-25T15:14:51.783Z,8.00
2018-12-25T15:17:19.471Z,8.10
2018-12-25T15:19:46.786Z,8.00
2018-12-25T15:22:14.154Z,8.00
2018-12-25T15:24:41.529Z,8.00
2018-12-25T15:27:08.847Z,7.90
2018-12-25T15:29:36.597Z,7.90
2018-12-25T15:32:05.161Z,7.90
2018-12-25T15:34:36.906Z,7.80
2018-12-25T15:37:04.343Z,7.80
2018-12-25T15:39:31.781Z,7.70
2018-12-25T15:41:59.094Z,7.70
2018-12-25T15:44:26.583Z,7.60
2018-12-25T15:46:53.997Z,7.50
2018-12-25T15:49:21.453Z,7.60
2018-12-25T15:51:48.885Z,7.60
2018-12-25T15:54:16.355Z,7.50
2018-12-25T15:56:43.860Z,7.50
2018-12-25T15:59:11.266Z,7.40
2018-12-25T16:01:38.740Z,7.40
2018-12-25T16:04:06.166Z,7.40
2018-12-25T16:06:33.495Z,7.30
2018-12-25T16:09:00.926Z,7.20
2018-12-25T16:11:28.607Z,7.10
2018-12-25T16:13:56.644Z,7.00
2018-12-25T16:16:24.370Z,7.00
2018-12-25T16:18:51.794Z,7.00
2018-12-25T16:21:19.523Z,6.90
2018-12-25T16:23:47.118Z,6.80
2018-12-25T16:26:14.568Z,6.80
2018-12-25T16:28:42.047Z,6.80
2018-12-25T16:31:09.488Z,6.70
2018-12-25T16:33:36.927Z,6.70
2018-12-25T16:36:04.386Z,6.60
2018-12-25T16:38:31.820Z,6.60
2018-12-25T16:40:59.231Z,6.50
2018-12-25T16:43:26.654Z,6.50
2018-12-25T16:45:54.110Z,6.40
2018-12-25T16:48:21.534Z,6.50
2018-12-25T16:50:49.002Z,6.40
2018-12-25T16:53:19.504Z,6.40
2018-12-25T16:55:47.028Z,6.40
2018-12-25T16:58:14.431Z,6.30
2018-12-25T17:00:41.949Z,6.30
2018-12-25T17:03:09.399Z,6.40
2018-12-25T17:05:36.752Z,6.50
2018-12-25T17:08:04.479Z,6.40
2018-12-25T17:10:31.907Z,6.40
2018-12-25T17:12:59.349Z,6.50
2018-12-25T17:15:26.739Z,6.40
2018-12-25T17:17:54.351Z,6.30
2018-12-25T17:20:22.098Z,6.40
2018-12-25T17:22:49.485Z,6.40
2018-12-25T17:25:16.907Z,6.40
2018-12-25T17:27:44.378Z,6.50
2018-12-25T17:30:11.837Z,6.40
2018-12-25T17:32:39.270Z,6.40
2018-12-25T17:35:06.673Z,6.30
2018-12-25T17:37:34.082Z,6.20
2018-12-25T17:40:01.556Z,6.10
2018-12-25T17:42:29.889Z,6.10
2018-12-25T17:44:57.252Z,6.00
2018-12-25T17:47:24.705Z,6.00
2018-12-25T17:49:52.125Z,5.90
2018-12-25T17:52:19.564Z,5.90
2018-12-25T17:54:47.015Z,5.80
2018-12-25T17:57:14.395Z,5.80
2018-12-25T17:59:41.823Z,5.80
2018-12-25T18:02:09.236Z,5.70
2018-12-25T18:04:36.727Z,5.80
2018-12-25T18:07:04.183Z,5.70
2018-12-25T18:09:31.637Z,5.70
2018-12-25T18:11:59.175Z,5.70
2018-12-25T18:14:26.648Z,5.70
2018-12-25T18:16:54.076Z,5.60
2018-12-25T18:19:21.804Z,5.60
2018-12-25T18:21:49.690Z,5.60
2018-12-25T18:24:19.385Z,5.60
2018-12-25T18:26:46.462Z,5.60
2018-12-25T18:29:14.022Z,5.70
2018-12-25T18:31:41.680Z,5.70
2018-12-25T18:34:09.143Z,5.70
2018-12-25T18:36:36.652Z,5.70
2018-12-25T18:39:05.836Z,5.60
2018-12-25T18:41:33.597Z,5.70
2018-12-25T18:44:01.416Z,5.60
2018-12-25T18:46:29.393Z,5.50
2018-12-25T18:48:57.263Z,5.50
2018-12-25T18:51:25.084Z,5.40
2018-12-25T18:53:52.454Z,5.50
2018-12-25T18:56:19.955Z,5.50
2018-12-25T18:58:47.435Z,5.50
2018-12-25T19:01:14.942Z,5.50
2018-12-25T19:03:42.397Z,5.60
2018-12-25T19:06:09.960Z,5.50
2018-12-25T19:08:37.443Z,5.50
2018-12-25T19:11:05.000Z,5.50
2018-12-25T19:13:32.768Z,5.50
2018-12-25T19:16:00.438Z,5.60
2018-12-25T19:18:28.332Z,5.60
2018-12-25T19:20:55.822Z,5.50
2018-12-25T19:23:23.312Z,5.40
2018-12-25T19:25:56.816Z,5.50
2018-12-25T19:28:24.341Z,5.40
2018-12-25T19:30:51.797Z,5.40
2018-12-25T19:33:19.429Z,5.30
2018-12-25T19:35:46.979Z,5.30
2018-12-25T19:38:14.441Z,5.30
2018-12-25T19:40:42.612Z,5.20
2018-12-25T19:43:10.129Z,5.20
2018-12-25T19:45:37.608Z,5.20
2018-12-25T19:48:05.101Z,5.20
2018-12-25T19:50:32.607Z,5.10
2018-12-25T19:53:00.122Z,5.10
2018-12-25T19:55:27.522Z,5.20
2018-12-25T19:57:55.084Z,5.10
2018-12-25T20:00:22.962Z,5.20
2018-12-25T20:03:07.282Z,5.20
2018-12-25T20:06:18.343Z,5.20
2018-12-25T20:09:36.761Z,5.10
2018-12-25T20:12:47.024Z,5.10
2018-12-25T20:15:40.942Z,5.10
2018-12-25T20:18:37.145Z,5.00
2018-12-25T20:21:40.935Z,4.90
2018-12-25T20:24:21.702Z,4.80
2018-12-25T20:27:43.214Z,4.80
2018-12-25T20:30:42.785Z,4.80
2018-12-25T20:34:04.643Z,4.80
2018-12-25T20:37:25.657Z,4.80
2018-12-25T20:40:30.153Z,4.70
2018-12-25T20:43:39.321Z,4.70
2018-12-25T20:46:41.686Z,4.70
2018-12-25T20:49:49.805Z,4.70
2018-12-25T20:53:14.021Z,4.70
2018-12-25T20:56:30.206Z,4.70
2018-12-25T20:59:52.319Z,4.60
2018-12-25T21:02:49.330Z,4.70
2018-12-25T21:06:00.925Z,4.70
2018-12-25T21:09:06.225Z,4.70
2018-12-25T21:12:11.154Z,4.70
2018-12-25T21:15:20.445Z,4.70
2018-12-25T21:18:34.521Z,4.70
2018-12-25T21:21:38.601Z,4.70
2018-12-25T21:24:42.314Z,4.70
2018-12-25T21:27:33.576Z,4.70
2018-12-25T21:30:03.390Z,4.70
2018-12-25T21:32:32.753Z,4.60
2018-12-25T21:35:07.105Z,4.50
2018-12-25T21:37:35.003Z,4.50
2018-12-25T21:40:02.831Z,4.60
2018-12-25T21:42:30.647Z,4.50
2018-12-25T21:44:58.422Z,4.50
2018-12-25T21:47:25.837Z,4.70
2018-12-25T21:49:53.457Z,4.80
2018-12-25T21:52:20.891Z,4.80
2018-12-25T21:54:48.577Z,4.70
2018-12-25T21:57:16.627Z,4.70
2018-12-25T21:59:44.071Z,4.70
2018-12-25T22:02:11.625Z,4.60
2018-12-25T22:04:39.463Z,4.70
2018-12-25T22:07:06.954Z,4.50
2018-12-25T22:09:34.466Z,4.40
2018-12-25T22:12:01.962Z,4.40
2018-12-25T22:14:29.367Z,4.40
2018-12-25T22:16:57.175Z,4.20
2018-12-25T22:19:24.634Z,4.20
2018-12-25T22:21:52.260Z,4.20
2018-12-25T22:24:19.763Z,4.30
2018-12-25T22:26:47.267Z,4.40
2018-12-25T22:29:14.720Z,4.40
2018-12-25T22:31:42.171Z,4.50
2018-12-25T22:34:09.660Z,4.50
2018-12-25T22:36:37.089Z,4.40
2018-12-25T22:39:05.635Z,4.40
2018-12-25T22:41:33.116Z,4.40
2018-12-25T22:44:00.816Z,4.30
2018-12-25T22:46:28.306Z,4.20
2018-12-25T22:48:55.745Z,4.00
2018-12-25T22:51:23.192Z,4.10
2018-12-25T22:53:50.499Z,4.20
2018-12-25T22:56:17.960Z,4.20
2018-12-25T22:58:45.447Z,4.10
2018-12-25T23:01:13.012Z,4.10
2018-12-25T23:03:40.477Z,4.20
2018-12-25T23:06:07.879Z,4.20
2018-12-25T23:08:35.359Z,4.20
2018-12-25T23:11:02.847Z,4.20
2018-12-25T23:13:30.359Z,4.30
2018-12-25T23:15:57.782Z,4.30
2018-12-25T23:18:25.235Z,4.30
2018-12-25T23:20:52.656Z,4.30
2018-12-25T23:23:20.029Z,4.30
2018-12-25T23:25:47.428Z,4.40
2018-12-25T23:28:14.862Z,4.40
2018-12-25T23:30:42.283Z,4.40
2018-12-25T23:33:09.699Z,4.40
2018-12-25T23:35:37.113Z,4.50
2018-12-25T23:38:04.428Z,4.40
2018-12-25T23:40:32.412Z,4.40
2018-12-25T23:43:00.027Z,4.40
2018-12-25T23:45:27.341Z,4.40
2018-12-25T23:47:54.759Z,4.10
2018-12-25T23:50:22.439Z,4.10
2018-12-25T23:52:49.899Z,4.10
2018-12-25T23:55:17.604Z,4.20
2018-12-25T23:57:45.315Z,4.30
